sensor_id;sensor_type;location;lat;lon;timestamp;P1;durP1;ratioP1;P2;durP2;ratioP2
703;SDS011;335;48.694;9.120;2024-02-23T00:01:28;0.30;;;0.10;;
703;SDS011;335;48.694;9.120;2024-02-23T00:04:14;0.30;;;0.20;;
703;SDS011;335;48.694;9.120;2024-02-23T00:06:59;0.20;;;0.10;;
703;SDS011;335;48.694;9.120;2024-02-23T00:09:44;0.52;;;0.38;;
703;SDS011;335;48.694;9.120;2024-02-23T00:12:30;0.30;;;0.20;;
703;SDS011;335;48.694;9.120;2024-02-23T00:15:15;0.75;;;0.30;;
703;SDS011;335;48.694;9.120;2024-02-23T00:18:00;0.30;;;0.10;;
703;SDS011;335;48.694;9.120;2024-02-23T00:20:49;0.30;;;0.20;;
703;SDS011;335;48.694;9.120;2024-02-23T00:23:34;0.20;;;0.10;;
703;SDS011;335;48.694;9.120;2024-02-23T00:26:19;0.47;;;0.20;;
703;SDS011;335;48.694;9.120;2024-02-23T00:29:05;0.93;;;0.20;;
703;SDS011;335;48.694;9.120;2024-02-23T00:31:51;0.55;;;0.20;;
703;SDS011;335;48.694;9.120;2024-02-23T00:34:37;0.95;;;0.20;;
703;SDS011;335;48.694;9.120;2024-02-23T00:37:22;0.30;;;0.20;;
703;SDS011;335;48.694;9.120;2024-02-23T00:40:07;0.30;;;0.20;;
703;SDS011;335;48.694;9.120;2024-02-23T00:42:54;2.92;;;0.57;;
703;SDS011;335;48.694;9.120;2024-02-23T00:45:39;1.60;;;0.20;;
703;SDS011;335;48.694;9.120;2024-02-23T00:48:25;0.30;;;0.20;;
703;SDS011;335;48.694;9.120;2024-02-23T00:51:11;0.80;;;0.40;;
703;SDS011;335;48.694;9.120;2024-02-23T00:53:56;0.30;;;0.20;;
703;SDS011;335;48.694;9.120;2024-02-23T00:56:41;0.88;;;0.38;;
703;SDS011;335;48.694;9.120;2024-02-23T00:59:27;1.08;;;0.68;;
703;SDS011;335;48.694;9.120;2024-02-23T01:02:12;0.30;;;0.20;;
703;SDS011;335;48.694;9.120;2024-02-23T01:04:58;0.40;;;0.30;;
703;SDS011;335;48.694;9.120;2024-02-23T01:07:43;2.08;;;0.40;;
703;SDS011;335;48.694;9.120;2024-02-23T01:10:28;1.37;;;0.40;;
703;SDS011;335;48.694;9.120;2024-02-23T01:13:14;6.57;;;1.08;;
703;SDS011;335;48.694;9.120;2024-02-23T01:15:59;3.33;;;0.43;;
703;SDS011;335;48.694;9.120;2024-02-23T01:18:44;2.15;;;1.40;;
703;SDS011;335;48.694;9.120;2024-02-23T01:21:30;0.82;;;0.30;;
703;SDS011;335;48.694;9.120;2024-02-23T01:24:15;1.00;;;0.55;;
703;SDS011;335;48.694;9.120;2024-02-23T01:27:01;0.50;;;0.20;;
703;SDS011;335;48.694;9.120;2024-02-23T01:29:49;4.20;;;0.60;;
703;SDS011;335;48.694;9.120;2024-02-23T01:32:34;0.82;;;0.30;;
703;SDS011;335;48.694;9.120;2024-02-23T01:35:22;1.75;;;0.30;;
703;SDS011;335;48.694;9.120;2024-02-23T01:38:08;1.45;;;0.40;;
703;SDS011;335;48.694;9.120;2024-02-23T01:40:53;0.65;;;0.30;;
703;SDS011;335;48.694;9.120;2024-02-23T01:43:38;1.67;;;0.28;;
703;SDS011;335;48.694;9.120;2024-02-23T01:46:23;2.72;;;0.32;;
703;SDS011;335;48.694;9.120;2024-02-23T01:49:09;0.70;;;0.40;;
703;SDS011;335;48.694;9.120;2024-02-23T01:51:55;0.40;;;0.30;;
703;SDS011;335;48.694;9.120;2024-02-23T01:54:42;1.27;;;0.50;;
703;SDS011;335;48.694;9.120;2024-02-23T01:57:27;1.35;;;0.93;;
703;SDS011;335;48.694;9.120;2024-02-23T02:00:15;2.00;;;0.70;;
703;SDS011;335;48.694;9.120;2024-02-23T02:03:02;0.50;;;0.30;;
703;SDS011;335;48.694;9.120;2024-02-23T02:05:48;1.60;;;0.35;;
703;SDS011;335;48.694;9.120;2024-02-23T02:08:34;0.47;;;0.30;;
703;SDS011;335;48.694;9.120;2024-02-23T02:11:20;1.00;;;0.38;;
703;SDS011;335;48.694;9.120;2024-02-23T02:14:06;1.15;;;0.30;;
703;SDS011;335;48.694;9.120;2024-02-23T02:16:51;2.78;;;0.43;;
703;SDS011;335;48.694;9.120;2024-02-23T02:19:36;2.35;;;0.40;;
703;SDS011;335;48.694;9.120;2024-02-23T02:22:22;1.80;;;0.40;;
703;SDS011;335;48.694;9.120;2024-02-23T02:25:07;1.35;;;0.52;;
703;SDS011;335;48.694;9.120;2024-02-23T02:27:53;3.03;;;0.40;;
703;SDS011;335;48.694;9.120;2024-02-23T02:30:38;1.95;;;1.05;;
703;SDS011;335;48.694;9.120;2024-02-23T02:33:23;2.92;;;0.63;;
703;SDS011;335;48.694;9.120;2024-02-23T02:36:09;0.70;;;0.50;;
703;SDS011;335;48.694;9.120;2024-02-23T02:38:54;1.42;;;0.35;;
703;SDS011;335;48.694;9.120;2024-02-23T02:41:39;1.88;;;0.35;;
703;SDS011;335;48.694;9.120;2024-02-23T02:44:25;2.60;;;0.50;;
703;SDS011;335;48.694;9.120;2024-02-23T02:47:11;1.65;;;0.40;;
703;SDS011;335;48.694;9.120;2024-02-23T02:49:56;0.30;;;0.20;;
703;SDS011;335;48.694;9.120;2024-02-23T02:52:42;1.45;;;0.30;;
703;SDS011;335;48.694;9.120;2024-02-23T02:55:27;1.30;;;0.30;;
703;SDS011;335;48.694;9.120;2024-02-23T02:58:13;2.45;;;0.55;;
703;SDS011;335;48.694;9.120;2024-02-23T03:00:58;1.02;;;0.40;;
703;SDS011;335;48.694;9.120;2024-02-23T03:03:44;0.32;;;0.32;;
703;SDS011;335;48.694;9.120;2024-02-23T03:06:29;0.55;;;0.30;;
703;SDS011;335;48.694;9.120;2024-02-23T03:09:14;1.98;;;0.70;;
703;SDS011;335;48.694;9.120;2024-02-23T03:12:00;0.77;;;0.40;;
703;SDS011;335;48.694;9.120;2024-02-23T03:14:51;1.58;;;0.40;;
703;SDS011;335;48.694;9.120;2024-02-23T03:17:36;1.67;;;0.65;;
703;SDS011;335;48.694;9.120;2024-02-23T03:20:21;0.50;;;0.30;;
703;SDS011;335;48.694;9.120;2024-02-23T03:23:07;2.63;;;0.40;;
703;SDS011;335;48.694;9.120;2024-02-23T03:25:52;0.77;;;0.30;;
703;SDS011;335;48.694;9.120;2024-02-23T03:28:37;1.38;;;0.45;;
703;SDS011;335;48.694;9.120;2024-02-23T03:31:23;0.77;;;0.60;;
703;SDS011;335;48.694;9.120;2024-02-23T03:34:08;0.55;;;0.30;;
703;SDS011;335;48.694;9.120;2024-02-23T03:36:53;1.65;;;0.38;;
703;SDS011;335;48.694;9.120;2024-02-23T03:39:39;1.52;;;0.47;;
703;SDS011;335;48.694;9.120;2024-02-23T03:42:24;1.52;;;0.57;;
703;SDS011;335;48.694;9.120;2024-02-23T03:45:09;0.60;;;0.30;;
703;SDS011;335;48.694;9.120;2024-02-23T03:47:55;0.35;;;0.30;;
703;SDS011;335;48.694;9.120;2024-02-23T03:50:40;2.55;;;0.75;;
703;SDS011;335;48.694;9.120;2024-02-23T03:53:25;0.60;;;0.40;;
703;SDS011;335;48.694;9.120;2024-02-23T03:56:11;1.30;;;0.50;;
703;SDS011;335;48.694;9.120;2024-02-23T03:58:56;1.08;;;0.40;;
703;SDS011;335;48.694;9.120;2024-02-23T04:01:41;1.40;;;0.45;;
703;SDS011;335;48.694;9.120;2024-02-23T04:04:27;1.35;;;0.30;;
703;SDS011;335;48.694;9.120;2024-02-23T04:07:12;0.57;;;0.57;;
703;SDS011;335;48.694;9.120;2024-02-23T04:09:58;0.60;;;0.60;;
703;SDS011;335;48.694;9.120;2024-02-23T04:12:43;1.02;;;0.82;;
703;SDS011;335;48.694;9.120;2024-02-23T04:15:28;0.52;;;0.47;;
703;SDS011;335;48.694;9.120;2024-02-23T04:18:14;0.30;;;0.30;;
703;SDS011;335;48.694;9.120;2024-02-23T04:20:59;1.00;;;0.40;;
703;SDS011;335;48.694;9.120;2024-02-23T04:23:45;1.17;;;0.50;;
703;SDS011;335;48.694;9.120;2024-02-23T04:26:30;0.50;;;0.30;;
703;SDS011;335;48.694;9.120;2024-02-23T04:29:16;1.30;;;0.40;;
703;SDS011;335;48.694;9.120;2024-02-23T04:32:01;0.82;;;0.40;;
703;SDS011;335;48.694;9.120;2024-02-23T04:34:49;1.48;;;0.25;;
703;SDS011;335;48.694;9.120;2024-02-23T04:37:34;1.50;;;0.52;;
703;SDS011;335;48.694;9.120;2024-02-23T04:40:20;1.02;;;0.52;;
703;SDS011;335;48.694;9.120;2024-02-23T04:43:05;0.88;;;0.65;;
703;SDS011;335;48.694;9.120;2024-02-23T04:45:51;1.40;;;0.50;;
703;SDS011;335;48.694;9.120;2024-02-23T04:48:36;3.00;;;0.68;;
703;SDS011;335;48.694;9.120;2024-02-23T04:51:22;12.07;;;2.10;;
703;SDS011;335;48.694;9.120;2024-02-23T04:54:08;1.90;;;0.50;;
703;SDS011;335;48.694;9.120;2024-02-23T04:56:53;3.45;;;0.68;;
703;SDS011;335;48.694;9.120;2024-02-23T04:59:38;1.65;;;0.30;;
703;SDS011;335;48.694;9.120;2024-02-23T05:02:24;1.67;;;0.40;;
703;SDS011;335;48.694;9.120;2024-02-23T05:05:09;1.25;;;0.52;;
703;SDS011;335;48.694;9.120;2024-02-23T05:07:55;0.40;;;0.40;;
703;SDS011;335;48.694;9.120;2024-02-23T05:10:40;0.95;;;0.50;;
703;SDS011;335;48.694;9.120;2024-02-23T05:13:25;1.95;;;0.50;;
703;SDS011;335;48.694;9.120;2024-02-23T05:16:11;1.45;;;0.60;;
703;SDS011;335;48.694;9.120;2024-02-23T05:18:58;1.38;;;1.27;;
703;SDS011;335;48.694;9.120;2024-02-23T05:21:43;0.50;;;0.30;;
703;SDS011;335;48.694;9.120;2024-02-23T05:24:28;1.48;;;0.30;;
703;SDS011;335;48.694;9.120;2024-02-23T05:27:14;0.63;;;0.63;;
703;SDS011;335;48.694;9.120;2024-02-23T05:29:59;1.55;;;0.50;;
703;SDS011;335;48.694;9.120;2024-02-23T05:32:45;1.35;;;0.70;;
703;SDS011;335;48.694;9.120;2024-02-23T05:35:31;1.48;;;0.60;;
703;SDS011;335;48.694;9.120;2024-02-23T05:38:17;2.03;;;0.70;;
703;SDS011;335;48.694;9.120;2024-02-23T05:41:02;0.70;;;0.65;;
703;SDS011;335;48.694;9.120;2024-02-23T05:43:50;0.60;;;0.50;;
703;SDS011;335;48.694;9.120;2024-02-23T05:46:36;0.50;;;0.43;;
703;SDS011;335;48.694;9.120;2024-02-23T05:49:21;1.50;;;0.40;;
703;SDS011;335;48.694;9.120;2024-02-23T05:52:07;1.27;;;0.57;;
703;SDS011;335;48.694;9.120;2024-02-23T05:54:52;1.67;;;0.85;;
703;SDS011;335;48.694;9.120;2024-02-23T05:57:41;1.65;;;0.75;;
703;SDS011;335;48.694;9.120;2024-02-23T06:00:26;0.82;;;0.82;;
703;SDS011;335;48.694;9.120;2024-02-23T06:03:11;0.95;;;0.70;;
703;SDS011;335;48.694;9.120;2024-02-23T06:05:58;2.17;;;0.50;;
703;SDS011;335;48.694;9.120;2024-02-23T06:08:43;0.88;;;0.50;;
703;SDS011;335;48.694;9.120;2024-02-23T06:11:29;2.75;;;1.35;;
703;SDS011;335;48.694;9.120;2024-02-23T06:14:14;2.53;;;0.73;;
703;SDS011;335;48.694;9.120;2024-02-23T06:17:00;1.50;;;0.90;;
703;SDS011;335;48.694;9.120;2024-02-23T06:19:48;0.80;;;0.50;;
703;SDS011;335;48.694;9.120;2024-02-23T06:22:34;0.57;;;0.57;;
703;SDS011;335;48.694;9.120;2024-02-23T06:25:19;0.75;;;0.57;;
703;SDS011;335;48.694;9.120;2024-02-23T06:28:04;2.03;;;0.57;;
703;SDS011;335;48.694;9.120;2024-02-23T06:30:51;1.88;;;0.85;;
703;SDS011;335;48.694;9.120;2024-02-23T06:33:36;0.93;;;0.70;;
703;SDS011;335;48.694;9.120;2024-02-23T06:36:22;1.00;;;1.00;;
703;SDS011;335;48.694;9.120;2024-02-23T06:39:07;0.60;;;0.60;;
703;SDS011;335;48.694;9.120;2024-02-23T06:41:53;0.93;;;0.60;;
703;SDS011;335;48.694;9.120;2024-02-23T06:44:38;2.78;;;0.70;;
703;SDS011;335;48.694;9.120;2024-02-23T06:47:24;1.40;;;0.60;;
703;SDS011;335;48.694;9.120;2024-02-23T06:50:10;0.60;;;0.30;;
703;SDS011;335;48.694;9.120;2024-02-23T06:52:55;1.55;;;0.50;;
703;SDS011;335;48.694;9.120;2024-02-23T06:55:41;0.95;;;0.80;;
703;SDS011;335;48.694;9.120;2024-02-23T06:58:26;0.70;;;0.52;;
703;SDS011;335;48.694;9.120;2024-02-23T07:01:12;0.80;;;0.60;;
703;SDS011;335;48.694;9.120;2024-02-23T07:03:57;0.73;;;0.70;;
703;SDS011;335;48.694;9.120;2024-02-23T07:06:43;3.05;;;1.15;;
703;SDS011;335;48.694;9.120;2024-02-23T07:09:29;1.30;;;0.57;;
703;SDS011;335;48.694;9.120;2024-02-23T07:12:14;1.23;;;0.65;;
703;SDS011;335;48.694;9.120;2024-02-23T07:15:00;5.57;;;1.58;;
703;SDS011;335;48.694;9.120;2024-02-23T07:17:47;4.70;;;1.00;;
703;SDS011;335;48.694;9.120;2024-02-23T07:20:32;1.02;;;1.02;;
703;SDS011;335;48.694;9.120;2024-02-23T07:23:18;1.75;;;0.70;;
703;SDS011;335;48.694;9.120;2024-02-23T07:26:03;2.45;;;0.60;;
703;SDS011;335;48.694;9.120;2024-02-23T07:28:48;1.15;;;0.70;;
703;SDS011;335;48.694;9.120;2024-02-23T07:31:36;1.15;;;0.52;;
703;SDS011;335;48.694;9.120;2024-02-23T07:34:22;2.67;;;0.95;;
703;SDS011;335;48.694;9.120;2024-02-23T07:37:07;1.52;;;0.55;;
703;SDS011;335;48.694;9.120;2024-02-23T07:39:53;2.92;;;0.77;;
703;SDS011;335;48.694;9.120;2024-02-23T07:42:38;0.50;;;0.43;;
703;SDS011;335;48.694;9.120;2024-02-23T07:45:23;0.52;;;0.52;;
703;SDS011;335;48.694;9.120;2024-02-23T07:48:09;4.38;;;0.60;;
703;SDS011;335;48.694;9.120;2024-02-23T07:50:54;0.75;;;0.57;;
703;SDS011;335;48.694;9.120;2024-02-23T07:53:39;0.82;;;0.75;;
703;SDS011;335;48.694;9.120;2024-02-23T07:56:25;1.90;;;1.70;;
703;SDS011;335;48.694;9.120;2024-02-23T07:59:10;2.65;;;1.50;;
703;SDS011;335;48.694;9.120;2024-02-23T08:01:56;3.10;;;0.80;;
703;SDS011;335;48.694;9.120;2024-02-23T08:04:41;1.33;;;0.50;;
703;SDS011;335;48.694;9.120;2024-02-23T08:07:27;1.42;;;0.60;;
703;SDS011;335;48.694;9.120;2024-02-23T08:10:14;3.80;;;1.23;;
703;SDS011;335;48.694;9.120;2024-02-23T08:12:59;1.05;;;0.57;;
703;SDS011;335;48.694;9.120;2024-02-23T08:15:51;1.70;;;0.60;;
703;SDS011;335;48.694;9.120;2024-02-23T08:18:36;1.60;;;1.50;;
703;SDS011;335;48.694;9.120;2024-02-23T08:21:22;0.90;;;0.90;;
703;SDS011;335;48.694;9.120;2024-02-23T08:24:07;3.50;;;1.00;;
703;SDS011;335;48.694;9.120;2024-02-23T08:26:53;0.93;;;0.50;;
703;SDS011;335;48.694;9.120;2024-02-23T08:29:38;0.73;;;0.73;;
703;SDS011;335;48.694;9.120;2024-02-23T08:32:24;1.88;;;0.85;;
703;SDS011;335;48.694;9.120;2024-02-23T08:35:09;1.63;;;1.50;;
703;SDS011;335;48.694;9.120;2024-02-23T08:37:54;1.37;;;0.73;;
703;SDS011;335;48.694;9.120;2024-02-23T08:40:40;3.20;;;1.10;;
703;SDS011;335;48.694;9.120;2024-02-23T08:43:27;1.20;;;0.80;;
703;SDS011;335;48.694;9.120;2024-02-23T08:46:12;1.17;;;0.90;;
703;SDS011;335;48.694;9.120;2024-02-23T08:48:57;1.65;;;0.90;;
703;SDS011;335;48.694;9.120;2024-02-23T08:51:43;2.40;;;0.60;;
703;SDS011;335;48.694;9.120;2024-02-23T08:54:28;5.03;;;0.90;;
703;SDS011;335;48.694;9.120;2024-02-23T08:57:13;1.38;;;1.10;;
703;SDS011;335;48.694;9.120;2024-02-23T09:00:02;2.17;;;0.77;;
703;SDS011;335;48.694;9.120;2024-02-23T09:02:49;1.15;;;0.65;;
703;SDS011;335;48.694;9.120;2024-02-23T09:05:35;2.10;;;0.80;;
703;SDS011;335;48.694;9.120;2024-02-23T09:08:20;3.08;;;2.17;;
703;SDS011;335;48.694;9.120;2024-02-23T09:11:05;1.25;;;1.15;;
703;SDS011;335;48.694;9.120;2024-02-23T09:13:51;2.35;;;0.90;;
703;SDS011;335;48.694;9.120;2024-02-23T09:16:36;1.95;;;0.70;;
703;SDS011;335;48.694;9.120;2024-02-23T09:19:21;1.85;;;1.48;;
703;SDS011;335;48.694;9.120;2024-02-23T09:22:07;3.60;;;0.77;;
703;SDS011;335;48.694;9.120;2024-02-23T09:24:52;1.70;;;0.95;;
703;SDS011;335;48.694;9.120;2024-02-23T09:27:37;0.60;;;0.60;;
703;SDS011;335;48.694;9.120;2024-02-23T09:30:28;0.93;;;0.80;;
703;SDS011;335;48.694;9.120;2024-02-23T09:33:13;0.75;;;0.73;;
703;SDS011;335;48.694;9.120;2024-02-23T09:35:58;0.70;;;0.70;;
703;SDS011;335;48.694;9.120;2024-02-23T09:38:44;1.43;;;0.80;;
703;SDS011;335;48.694;9.120;2024-02-23T09:41:30;4.73;;;1.00;;
703;SDS011;335;48.694;9.120;2024-02-23T09:44:16;1.77;;;1.30;;
703;SDS011;335;48.694;9.120;2024-02-23T09:47:03;1.90;;;1.13;;
703;SDS011;335;48.694;9.120;2024-02-23T09:49:53;1.67;;;1.57;;
703;SDS011;335;48.694;9.120;2024-02-23T09:52:39;2.10;;;2.00;;
703;SDS011;335;48.694;9.120;2024-02-23T09:55:25;2.57;;;2.33;;
703;SDS011;335;48.694;9.120;2024-02-23T09:58:10;2.40;;;1.77;;
703;SDS011;335;48.694;9.120;2024-02-23T10:00:58;3.80;;;2.07;;
703;SDS011;335;48.694;9.120;2024-02-23T10:03:43;2.47;;;2.37;;
703;SDS011;335;48.694;9.120;2024-02-23T10:06:30;2.47;;;2.40;;
703;SDS011;335;48.694;9.120;2024-02-23T10:09:15;1.97;;;1.87;;
703;SDS011;335;48.694;9.120;2024-02-23T10:12:01;2.30;;;2.20;;
703;SDS011;335;48.694;9.120;2024-02-23T10:14:50;2.53;;;1.80;;
703;SDS011;335;48.694;9.120;2024-02-23T10:17:35;1.93;;;1.50;;
703;SDS011;335;48.694;9.120;2024-02-23T10:20:20;2.40;;;2.30;;
703;SDS011;335;48.694;9.120;2024-02-23T10:23:07;2.00;;;1.87;;
703;SDS011;335;48.694;9.120;2024-02-23T10:25:52;2.13;;;1.93;;
703;SDS011;335;48.694;9.120;2024-02-23T10:28:38;1.70;;;1.60;;
703;SDS011;335;48.694;9.120;2024-02-23T10:31:24;1.60;;;1.50;;
703;SDS011;335;48.694;9.120;2024-02-23T10:34:09;2.20;;;1.60;;
703;SDS011;335;48.694;9.120;2024-02-23T10:36:57;3.10;;;1.70;;
703;SDS011;335;48.694;9.120;2024-02-23T10:39:42;2.20;;;2.00;;
703;SDS011;335;48.694;9.120;2024-02-23T10:42:29;2.17;;;2.07;;
703;SDS011;335;48.694;9.120;2024-02-23T10:45:19;3.20;;;2.03;;
703;SDS011;335;48.694;9.120;2024-02-23T10:48:06;3.63;;;2.33;;
703;SDS011;335;48.694;9.120;2024-02-23T10:50:52;3.13;;;2.43;;
703;SDS011;335;48.694;9.120;2024-02-23T10:53:38;2.13;;;1.97;;
703;SDS011;335;48.694;9.120;2024-02-23T10:56:24;1.83;;;1.73;;
703;SDS011;335;48.694;9.120;2024-02-23T10:59:10;1.60;;;1.50;;
703;SDS011;335;48.694;9.120;2024-02-23T11:01:56;3.27;;;1.80;;
703;SDS011;335;48.694;9.120;2024-02-23T11:04:47;1.90;;;1.67;;
703;SDS011;335;48.694;9.120;2024-02-23T11:07:37;1.90;;;1.80;;
703;SDS011;335;48.694;9.120;2024-02-23T11:10:23;2.17;;;2.10;;
703;SDS011;335;48.694;9.120;2024-02-23T11:13:13;2.27;;;2.03;;
703;SDS011;335;48.694;9.120;2024-02-23T11:16:07;2.17;;;2.07;;
703;SDS011;335;48.694;9.120;2024-02-23T11:19:06;2.40;;;2.30;;
703;SDS011;335;48.694;9.120;2024-02-23T11:21:56;3.73;;;3.43;;
703;SDS011;335;48.694;9.120;2024-02-23T11:24:43;2.17;;;2.07;;
703;SDS011;335;48.694;9.120;2024-02-23T11:27:32;2.40;;;2.20;;
703;SDS011;335;48.694;9.120;2024-02-23T11:30:18;2.40;;;2.00;;
703;SDS011;335;48.694;9.120;2024-02-23T11:33:04;1.90;;;1.80;;
703;SDS011;335;48.694;9.120;2024-02-23T11:35:53;2.03;;;1.90;;
703;SDS011;335;48.694;9.120;2024-02-23T11:38:38;1.90;;;1.40;;
703;SDS011;335;48.694;9.120;2024-02-23T11:41:24;2.27;;;2.07;;
703;SDS011;335;48.694;9.120;2024-02-23T11:44:10;2.27;;;2.07;;
703;SDS011;335;48.694;9.120;2024-02-23T11:46:58;3.10;;;2.30;;
703;SDS011;335;48.694;9.120;2024-02-23T11:49:44;2.90;;;2.63;;
703;SDS011;335;48.694;9.120;2024-02-23T11:52:30;2.10;;;1.80;;
703;SDS011;335;48.694;9.120;2024-02-23T11:55:21;3.90;;;1.83;;
703;SDS011;335;48.694;9.120;2024-02-23T11:58:07;2.67;;;1.87;;
703;SDS011;335;48.694;9.120;2024-02-23T12:00:54;3.03;;;1.70;;
703;SDS011;335;48.694;9.120;2024-02-23T12:03:39;2.77;;;2.17;;
703;SDS011;335;48.694;9.120;2024-02-23T12:06:24;2.27;;;2.17;;
703;SDS011;335;48.694;9.120;2024-02-23T12:09:14;1.93;;;1.80;;
703;SDS011;335;48.694;9.120;2024-02-23T12:12:00;3.53;;;1.83;;
703;SDS011;335;48.694;9.120;2024-02-23T12:14:52;2.17;;;1.97;;
703;SDS011;335;48.694;9.120;2024-02-23T12:17:46;3.83;;;1.50;;
703;SDS011;335;48.694;9.120;2024-02-23T12:20:34;2.43;;;1.90;;
703;SDS011;335;48.694;9.120;2024-02-23T12:23:20;2.20;;;1.70;;
703;SDS011;335;48.694;9.120;2024-02-23T12:26:05;1.70;;;1.63;;
703;SDS011;335;48.694;9.120;2024-02-23T12:28:51;2.70;;;2.00;;
703;SDS011;335;48.694;9.120;2024-02-23T12:31:36;1.70;;;1.60;;
703;SDS011;335;48.694;9.120;2024-02-23T12:34:22;2.70;;;1.80;;
703;SDS011;335;48.694;9.120;2024-02-23T12:37:07;3.17;;;2.37;;
703;SDS011;335;48.694;9.120;2024-02-23T12:39:53;2.47;;;1.87;;
703;SDS011;335;48.694;9.120;2024-02-23T12:42:38;3.40;;;2.40;;
703;SDS011;335;48.694;9.120;2024-02-23T12:45:24;2.00;;;1.80;;
703;SDS011;335;48.694;9.120;2024-02-23T12:48:09;2.77;;;2.00;;
703;SDS011;335;48.694;9.120;2024-02-23T12:50:54;1.90;;;1.80;;
703;SDS011;335;48.694;9.120;2024-02-23T12:53:40;2.50;;;1.70;;
703;SDS011;335;48.694;9.120;2024-02-23T12:56:26;5.47;;;2.30;;
703;SDS011;335;48.694;9.120;2024-02-23T12:59:12;2.33;;;1.50;;
703;SDS011;335;48.694;9.120;2024-02-23T13:01:57;1.40;;;1.33;;
703;SDS011;335;48.694;9.120;2024-02-23T13:04:42;3.37;;;1.80;;
703;SDS011;335;48.694;9.120;2024-02-23T13:07:33;3.13;;;1.80;;
703;SDS011;335;48.694;9.120;2024-02-23T13:10:18;2.00;;;1.90;;
703;SDS011;335;48.694;9.120;2024-02-23T13:13:04;4.13;;;1.90;;
703;SDS011;335;48.694;9.120;2024-02-23T13:15:51;2.50;;;1.93;;
703;SDS011;335;48.694;9.120;2024-02-23T13:18:37;2.80;;;2.20;;
703;SDS011;335;48.694;9.120;2024-02-23T13:21:22;2.00;;;1.80;;
703;SDS011;335;48.694;9.120;2024-02-23T13:24:08;2.60;;;1.90;;
703;SDS011;335;48.694;9.120;2024-02-23T13:26:54;2.40;;;2.10;;
703;SDS011;335;48.694;9.120;2024-02-23T13:29:40;2.50;;;2.30;;
703;SDS011;335;48.694;9.120;2024-02-23T13:32:25;3.60;;;1.90;;
703;SDS011;335;48.694;9.120;2024-02-23T13:35:10;2.30;;;1.80;;
703;SDS011;335;48.694;9.120;2024-02-23T13:37:56;1.87;;;1.77;;
703;SDS011;335;48.694;9.120;2024-02-23T13:40:42;2.17;;;1.87;;
703;SDS011;335;48.694;9.120;2024-02-23T13:43:27;2.23;;;1.70;;
703;SDS011;335;48.694;9.120;2024-02-23T13:46:13;4.33;;;2.00;;
703;SDS011;335;48.694;9.120;2024-02-23T13:49:02;2.77;;;1.70;;
703;SDS011;335;48.694;9.120;2024-02-23T13:51:49;3.03;;;2.17;;
703;SDS011;335;48.694;9.120;2024-02-23T13:54:35;4.00;;;1.90;;
703;SDS011;335;48.694;9.120;2024-02-23T13:57:20;4.40;;;2.27;;
703;SDS011;335;48.694;9.120;2024-02-23T14:00:06;2.70;;;1.63;;
703;SDS011;335;48.694;9.120;2024-02-23T14:02:57;1.80;;;1.70;;
703;SDS011;335;48.694;9.120;2024-02-23T14:05:42;3.93;;;2.70;;
703;SDS011;335;48.694;9.120;2024-02-23T14:08:29;2.73;;;2.00;;
703;SDS011;335;48.694;9.120;2024-02-23T14:11:14;2.30;;;1.80;;
703;SDS011;335;48.694;9.120;2024-02-23T14:14:00;2.40;;;2.20;;
703;SDS011;335;48.694;9.120;2024-02-23T14:16:48;2.20;;;1.90;;
703;SDS011;335;48.694;9.120;2024-02-23T14:19:33;3.70;;;1.93;;
703;SDS011;335;48.694;9.120;2024-02-23T14:22:19;2.47;;;2.30;;
703;SDS011;335;48.694;9.120;2024-02-23T14:25:04;4.30;;;3.90;;
703;SDS011;335;48.694;9.120;2024-02-23T14:27:50;8.90;;;4.70;;
703;SDS011;335;48.694;9.120;2024-02-23T14:30:35;4.23;;;3.20;;
703;SDS011;335;48.694;9.120;2024-02-23T14:33:21;2.43;;;2.20;;
703;SDS011;335;48.694;9.120;2024-02-23T14:36:06;3.80;;;2.00;;
703;SDS011;335;48.694;9.120;2024-02-23T14:38:51;4.40;;;2.73;;
703;SDS011;335;48.694;9.120;2024-02-23T14:41:37;2.87;;;2.50;;
703;SDS011;335;48.694;9.120;2024-02-23T14:44:22;2.50;;;2.30;;
703;SDS011;335;48.694;9.120;2024-02-23T14:47:07;3.27;;;2.50;;
703;SDS011;335;48.694;9.120;2024-02-23T14:49:53;4.50;;;2.20;;
703;SDS011;335;48.694;9.120;2024-02-23T14:52:38;2.67;;;2.47;;
703;SDS011;335;48.694;9.120;2024-02-23T14:55:23;2.63;;;2.43;;
703;SDS011;335;48.694;9.120;2024-02-23T14:58:09;3.13;;;2.13;;
703;SDS011;335;48.694;9.120;2024-02-23T15:00:54;4.30;;;2.23;;
703;SDS011;335;48.694;9.120;2024-02-23T15:03:39;2.30;;;1.80;;
703;SDS011;335;48.694;9.120;2024-02-23T15:06:25;2.33;;;1.83;;
703;SDS011;335;48.694;9.120;2024-02-23T15:09:10;1.93;;;1.83;;
703;SDS011;335;48.694;9.120;2024-02-23T15:11:56;2.67;;;2.00;;
703;SDS011;335;48.694;9.120;2024-02-23T15:14:41;2.50;;;2.30;;
703;SDS011;335;48.694;9.120;2024-02-23T15:17:27;5.23;;;2.17;;
703;SDS011;335;48.694;9.120;2024-02-23T15:20:12;2.63;;;2.17;;
703;SDS011;335;48.694;9.120;2024-02-23T15:22:58;6.53;;;2.33;;
703;SDS011;335;48.694;9.120;2024-02-23T15:25:43;2.53;;;2.30;;
703;SDS011;335;48.694;9.120;2024-02-23T15:28:29;4.93;;;2.47;;
703;SDS011;335;48.694;9.120;2024-02-23T15:31:14;7.30;;;2.77;;
703;SDS011;335;48.694;9.120;2024-02-23T15:33:59;5.57;;;2.73;;
703;SDS011;335;48.694;9.120;2024-02-23T15:36:49;2.83;;;1.97;;
703;SDS011;335;48.694;9.120;2024-02-23T15:39:34;2.00;;;1.90;;
703;SDS011;335;48.694;9.120;2024-02-23T15:42:20;3.10;;;2.60;;
703;SDS011;335;48.694;9.120;2024-02-23T15:45:05;6.50;;;3.30;;
703;SDS011;335;48.694;9.120;2024-02-23T15:47:53;3.77;;;2.60;;
703;SDS011;335;48.694;9.120;2024-02-23T15:50:39;5.97;;;3.00;;
703;SDS011;335;48.694;9.120;2024-02-23T15:53:24;1.97;;;1.87;;
703;SDS011;335;48.694;9.120;2024-02-23T15:56:09;2.80;;;2.03;;
703;SDS011;335;48.694;9.120;2024-02-23T15:58:55;4.27;;;2.90;;
703;SDS011;335;48.694;9.120;2024-02-23T16:01:40;4.00;;;2.67;;
703;SDS011;335;48.694;9.120;2024-02-23T16:04:25;5.70;;;3.17;;
703;SDS011;335;48.694;9.120;2024-02-23T16:07:12;3.80;;;2.70;;
703;SDS011;335;48.694;9.120;2024-02-23T16:09:57;2.90;;;1.90;;
703;SDS011;335;48.694;9.120;2024-02-23T16:12:50;2.10;;;1.40;;
703;SDS011;335;48.694;9.120;2024-02-23T16:15:36;2.00;;;1.80;;
703;SDS011;335;48.694;9.120;2024-02-23T16:18:21;3.00;;;1.10;;
703;SDS011;335;48.694;9.120;2024-02-23T16:21:07;2.27;;;1.10;;
703;SDS011;335;48.694;9.120;2024-02-23T16:23:53;2.63;;;1.53;;
703;SDS011;335;48.694;9.120;2024-02-23T16:26:38;2.47;;;2.27;;
703;SDS011;335;48.694;9.120;2024-02-23T16:29:24;1.80;;;1.60;;
703;SDS011;335;48.694;9.120;2024-02-23T16:32:09;2.03;;;1.50;;
703;SDS011;335;48.694;9.120;2024-02-23T16:34:54;2.30;;;1.97;;
703;SDS011;335;48.694;9.120;2024-02-23T16:37:40;4.40;;;1.40;;
703;SDS011;335;48.694;9.120;2024-02-23T16:40:25;1.93;;;1.30;;
703;SDS011;335;48.694;9.120;2024-02-23T16:43:13;1.90;;;1.80;;
703;SDS011;335;48.694;9.120;2024-02-23T16:45:59;2.37;;;2.17;;
703;SDS011;335;48.694;9.120;2024-02-23T16:48:44;3.60;;;2.73;;
703;SDS011;335;48.694;9.120;2024-02-23T16:51:29;9.50;;;3.30;;
703;SDS011;335;48.694;9.120;2024-02-23T16:54:15;3.07;;;2.43;;
703;SDS011;335;48.694;9.120;2024-02-23T16:57:01;2.33;;;2.13;;
703;SDS011;335;48.694;9.120;2024-02-23T16:59:51;9.30;;;3.67;;
703;SDS011;335;48.694;9.120;2024-02-23T17:02:36;4.67;;;4.03;;
703;SDS011;335;48.694;9.120;2024-02-23T17:05:23;5.53;;;3.60;;
703;SDS011;335;48.694;9.120;2024-02-23T17:08:08;4.60;;;3.17;;
703;SDS011;335;48.694;9.120;2024-02-23T17:10:53;3.40;;;2.77;;
703;SDS011;335;48.694;9.120;2024-02-23T17:13:39;2.50;;;2.40;;
703;SDS011;335;48.694;9.120;2024-02-23T17:16:25;2.73;;;2.53;;
703;SDS011;335;48.694;9.120;2024-02-23T17:19:12;3.30;;;3.00;;
703;SDS011;335;48.694;9.120;2024-02-23T17:21:58;3.40;;;3.10;;
703;SDS011;335;48.694;9.120;2024-02-23T17:24:44;4.93;;;2.20;;
703;SDS011;335;48.694;9.120;2024-02-23T17:27:29;2.60;;;2.40;;
703;SDS011;335;48.694;9.120;2024-02-23T17:30:14;4.10;;;2.17;;
703;SDS011;335;48.694;9.120;2024-02-23T17:33:00;6.77;;;2.80;;
703;SDS011;335;48.694;9.120;2024-02-23T17:35:51;3.43;;;2.80;;
703;SDS011;335;48.694;9.120;2024-02-23T17:38:37;4.17;;;2.40;;
703;SDS011;335;48.694;9.120;2024-02-23T17:41:22;5.00;;;2.27;;
703;SDS011;335;48.694;9.120;2024-02-23T17:44:07;3.53;;;2.87;;